Time;durP1;ratioP1;P1;durP2;ratioP2;P2;SDS_P1;SDS_P2;PMS_P1;PMS_P2;Temp;Humidity;BMP_temperature;BMP_pressure;BME280_temperature;BME280_humidity;BME280_pressure;Samples;Min_cycle;Max_cycle;Signal;HPM_P1;HPM_P2
2022/03/16 00:04:01;;;;;;;11.77;8.40;;;1.90;99.90;;;;;;7230679;32;20204;-74
2022/03/16 00:08:03;;;;;;;9.93;7.43;;;1.90;99.90;;;;;;7231549;32;20148;-74
2022/03/16 00:12:05;;;;;;;12.30;8.25;;;1.80;99.90;;;;;;7233564;32;20113;-75
2022/03/16 00:16:08;;;;;;;12.07;7.35;;;1.70;99.90;;;;;;7232589;32;20181;-75
2022/03/16 00:20:10;;;;;;;10.82;7.80;;;1.80;99.90;;;;;;7226530;32;20143;-74
2022/03/16 00:24:12;;;;;;;11.68;7.53;;;1.70;99.90;;;;;;7229851;32;20151;-74
2022/03/16 00:28:14;;;;;;;14.27;7.95;;;1.60;99.90;;;;;;7229895;32;20263;-74
2022/03/16 00:32:25;;;;;;;12.45;8.02;;;1.60;99.90;;;;;;7227984;32;20181;-75
2022/03/16 00:36:27;;;;;;;16.10;8.98;;;1.50;99.90;;;;;;7229156;32;20116;-75
2022/03/16 00:40:31;;;;;;;12.95;7.82;;;1.50;99.90;;;;;;7228157;32;20117;-75
2022/03/16 00:44:35;;;;;;;14.02;8.15;;;1.40;99.90;;;;;;7229061;32;20769;-75
2022/03/16 00:48:37;;;;;;;15.32;8.20;;;1.40;99.90;;;;;;7227040;32;20173;-75
2022/03/16 00:52:38;;;;;;;14.30;8.70;;;1.40;99.90;;;;;;7229456;32;20596;-75
2022/03/16 00:56:40;;;;;;;15.88;8.75;;;1.30;99.90;;;;;;7228531;32;20112;-75
2022/03/16 01:00:42;;;;;;;13.60;8.40;;;1.30;99.90;;;;;;7226409;32;20214;-75
2022/03/16 01:04:44;;;;;;;12.32;8.77;;;1.40;99.90;;;;;;7228670;32;20254;-75
2022/03/16 01:08:46;;;;;;;11.50;7.87;;;1.40;99.90;;;;;;7236831;32;20417;-75
2022/03/16 01:12:48;;;;;;;12.68;8.27;;;1.30;99.90;;;;;;7239071;32;20217;-75
2022/03/16 01:16:49;;;;;;;14.57;9.25;;;1.30;99.90;;;;;;7224104;32;20188;-75
2022/03/16 01:20:51;;;;;;;13.00;8.55;;;1.30;99.90;;;;;;7230606;32;20454;-75
2022/03/16 01:24:53;;;;;;;13.52;8.90;;;1.30;99.90;;;;;;7241222;32;20521;-75
2022/03/16 01:28:55;;;;;;;15.05;8.18;;;1.30;99.90;;;;;;7230671;32;20200;-75
2022/03/16 01:32:57;;;;;;;12.82;8.45;;;1.30;99.90;;;;;;7235966;32;20803;-75
2022/03/16 01:37:00;;;;;;;12.65;9.13;;;1.30;99.90;;;;;;7239229;32;20404;-75
2022/03/16 01:41:02;;;;;;;15.25;8.73;;;1.20;99.90;;;;;;7227512;32;20863;-75
2022/03/16 01:45:05;;;;;;;24.75;10.07;;;1.20;99.90;;;;;;7232181;32;20154;-75
2022/03/16 01:49:06;;;;;;;14.90;9.18;;;1.30;99.90;;;;;;7238312;32;20159;-75
2022/03/16 01:53:10;;;;;;;16.15;9.57;;;1.20;99.90;;;;;;7239413;32;20133;-75
2022/03/16 01:57:12;;;;;;;16.40;9.48;;;1.20;99.90;;;;;;7254104;32;20243;-75
2022/03/16 02:01:14;;;;;;;15.82;9.32;;;1.20;99.90;;;;;;7245718;32;20144;-75
2022/03/16 02:05:17;;;;;;;14.70;8.85;;;1.20;99.90;;;;;;7255665;32;20220;-75
2022/03/16 02:09:19;;;;;;;15.27;9.25;;;1.10;99.90;;;;;;7230987;32;20557;-75
2022/03/16 02:13:20;;;;;;;13.93;8.52;;;1.20;99.90;;;;;;7240705;32;20364;-75
2022/03/16 02:17:22;;;;;;;12.98;8.85;;;1.10;99.90;;;;;;7226947;32;20602;-75
2022/03/16 02:21:25;;;;;;;14.45;9.25;;;1.10;99.90;;;;;;7226975;32;21171;-75
2022/03/16 02:25:29;;;;;;;15.23;9.35;;;1.00;99.90;;;;;;7228456;32;20508;-75
2022/03/16 02:29:32;;;;;;;14.27;9.40;;;1.00;99.90;;;;;;7240537;32;20513;-75
2022/03/16 02:33:33;;;;;;;16.02;9.15;;;1.00;99.90;;;;;;7227943;32;20108;-75
2022/03/16 02:37:37;;;;;;;17.55;10.07;;;1.20;99.90;;;;;;7238886;32;20144;-75
2022/03/16 02:41:39;;;;;;;15.30;9.60;;;1.20;99.90;;;;;;7234421;32;20109;-75
2022/03/16 02:45:40;;;;;;;17.52;9.90;;;1.20;99.90;;;;;;7229512;32;20105;-75
2022/03/16 02:49:42;;;;;;;15.18;9.75;;;1.20;99.90;;;;;;7223699;32;20212;-75
2022/03/16 02:53:45;;;;;;;15.98;10.02;;;1.20;99.90;;;;;;7226293;32;20139;-75
2022/03/16 02:57:47;;;;;;;18.30;10.32;;;1.20;99.90;;;;;;7226531;32;20535;-75
2022/03/16 03:01:49;;;;;;;14.65;9.32;;;1.10;99.90;;;;;;7225144;32;20250;-75
2022/03/16 03:05:54;;;;;;;14.52;9.38;;;1.20;99.90;;;;;;7226163;32;20212;-74
2022/03/16 03:09:56;;;;;;;15.40;9.25;;;1.10;99.90;;;;;;7212470;32;20113;-74
2022/03/16 03:13:58;;;;;;;16.15;9.02;;;1.20;99.90;;;;;;7226558;32;20613;-74
2022/03/16 03:17:59;;;;;;;14.98;9.35;;;1.30;99.90;;;;;;7229814;32;20113;-75
2022/03/16 03:22:02;;;;;;;14.95;9.63;;;1.30;99.90;;;;;;7237374;32;20185;-74
2022/03/16 03:26:04;;;;;;;20.80;10.27;;;1.30;99.90;;;;;;7227857;32;20109;-74
2022/03/16 03:30:07;;;;;;;18.77;9.40;;;1.50;99.90;;;;;;7222744;32;20233;-74
2022/03/16 03:34:10;;;;;;;17.10;9.85;;;1.50;99.90;;;;;;7233059;32;20120;-74
2022/03/16 03:38:13;;;;;;;15.00;9.80;;;1.50;99.90;;;;;;7225824;32;20168;-74
2022/03/16 03:42:14;;;;;;;14.73;9.13;;;1.50;99.90;;;;;;7220766;32;20129;-75
2022/03/16 03:46:16;;;;;;;12.98;8.32;;;1.40;99.90;;;;;;7230838;32;20113;-75
2022/03/16 03:50:19;;;;;;;11.80;8.27;;;1.20;99.90;;;;;;7229014;32;20528;-75
2022/03/16 03:54:21;;;;;;;14.32;8.75;;;1.10;99.90;;;;;;7224660;32;20184;-75
2022/03/16 03:58:23;;;;;;;14.30;9.40;;;1.10;99.90;;;;;;7230188;32;20283;-75
2022/03/16 04:02:24;;;;;;;13.80;8.40;;;1.00;99.90;;;;;;7229989;32;20342;-75
2022/03/16 04:06:26;;;;;;;13.18;8.57;;;1.00;99.90;;;;;;7230649;32;20139;-75
2022/03/16 04:10:29;;;;;;;13.70;8.27;;;1.00;99.90;;;;;;7216976;32;20121;-75
2022/03/16 04:14:31;;;;;;;13.05;8.93;;;0.80;99.90;;;;;;7228033;32;20117;-75
2022/03/16 04:18:34;;;;;;;16.90;9.27;;;0.70;99.90;;;;;;7227255;32;20357;-74
2022/03/16 04:22:36;;;;;;;15.35;8.57;;;0.70;99.90;;;;;;7217480;32;20223;-75
2022/03/16 04:26:38;;;;;;;13.45;8.27;;;0.70;99.90;;;;;;7226995;32;20170;-74
2022/03/16 04:30:40;;;;;;;13.15;8.70;;;0.70;99.90;;;;;;7229493;32;20120;-75
2022/03/16 04:34:51;;;;;;;11.98;8.38;;;0.70;99.90;;;;;;7228943;32;20113;-75
2022/03/16 04:38:55;;;;;;;14.68;8.45;;;0.70;99.90;;;;;;7227082;32;20586;-75
2022/03/16 04:42:57;;;;;;;13.27;8.30;;;0.60;99.90;;;;;;7229624;32;20633;-75
2022/03/16 04:46:59;;;;;;;14.00;8.40;;;0.60;99.90;;;;;;7241017;32;20117;-75
2022/03/16 04:51:01;;;;;;;15.05;8.75;;;0.60;99.90;;;;;;7226104;32;20196;-75
2022/03/16 04:55:03;;;;;;;12.93;8.52;;;0.60;99.90;;;;;;7241654;32;20199;-75
2022/03/16 04:59:05;;;;;;;12.40;8.20;;;0.50;99.90;;;;;;7232244;32;20113;-75
2022/03/16 05:03:06;;;;;;;10.88;7.72;;;0.50;99.90;;;;;;7216005;32;20117;-74
2022/03/16 05:07:08;;;;;;;15.93;9.13;;;0.50;99.90;;;;;;7229343;32;20524;-75
2022/03/16 05:11:10;;;;;;;11.90;8.27;;;0.50;99.90;;;;;;7227010;32;20198;-75
2022/03/16 05:15:19;;;;;;;13.95;8.02;;;0.40;99.90;;;;;;7230505;32;20172;-76
2022/03/16 05:19:23;;;;;;;18.20;7.93;;;0.40;99.90;;;;;;7224869;32;20187;-76
2022/03/16 05:23:24;;;;;;;12.85;8.10;;;0.40;99.90;;;;;;7233771;32;20497;-80
2022/03/16 05:27:26;;;;;;;15.13;8.18;;;0.40;99.90;;;;;;7239844;32;20219;-76
2022/03/16 05:31:28;;;;;;;13.68;8.45;;;0.30;99.90;;;;;;7225542;32;20131;-76
2022/03/16 05:35:30;;;;;;;13.70;7.70;;;0.30;99.90;;;;;;7215849;32;20117;-76
2022/03/16 05:39:33;;;;;;;13.45;8.48;;;0.30;99.90;;;;;;7224548;32;20572;-75
2022/03/16 05:43:34;;;;;;;12.85;8.27;;;0.30;99.90;;;;;;7222986;32;20199;-75
2022/03/16 05:47:37;;;;;;;16.62;8.35;;;0.40;99.90;;;;;;7225659;32;20568;-75
2022/03/16 05:51:48;;;;;;;13.93;8.98;;;0.40;99.90;;;;;;7226190;32;20172;-75
2022/03/16 05:55:50;;;;;;;20.10;11.63;;;0.50;99.90;;;;;;7227063;32;20156;-74
2022/03/16 05:59:52;;;;;;;15.55;8.48;;;0.60;99.90;;;;;;7227822;32;20104;-77
2022/03/16 06:03:54;;;;;;;13.10;8.10;;;0.50;99.90;;;;;;7227958;32;20291;-76
2022/03/16 06:07:56;;;;;;;14.27;8.40;;;0.50;99.90;;;;;;7229663;32;20124;-76
2022/03/16 06:11:58;;;;;;;19.20;11.90;;;0.50;99.90;;;;;;7226991;32;20235;-74
2022/03/16 06:16:00;;;;;;;18.05;10.68;;;0.60;99.90;;;;;;7226392;32;20270;-74
2022/03/16 06:20:03;;;;;;;18.00;9.52;;;0.70;99.90;;;;;;7225390;32;20105;-74
2022/03/16 06:24:05;;;;;;;14.60;8.70;;;0.80;99.90;;;;;;7229810;32;20164;-73
2022/03/16 06:28:07;;;;;;;18.55;8.95;;;0.90;99.90;;;;;;7227192;32;20174;-76
2022/03/16 06:32:09;;;;;;;13.68;8.27;;;1.00;99.90;;;;;;7227250;32;20128;-75
2022/03/16 06:36:11;;;;;;;13.77;9.63;;;1.20;99.90;;;;;;7232317;32;20239;-75
2022/03/16 06:40:14;;;;;;;24.87;13.25;;;1.40;99.90;;;;;;7229781;32;20125;-77
2022/03/16 06:44:15;;;;;;;29.98;15.68;;;1.90;99.90;;;;;;7226464;32;20151;-75
2022/03/16 06:48:21;;;;;;;30.98;16.90;;;2.60;99.90;;;;;;7213715;32;20589;-75
2022/03/16 06:52:23;;;;;;;30.77;16.67;;;3.10;99.90;;;;;;7227437;32;20620;-76
2022/03/16 06:56:38;;;;;;;31.50;16.62;;;3.50;99.90;;;;;;7230808;32;20567;-76
2022/03/16 07:00:40;;;;;;;26.55;15.57;;;3.90;99.90;;;;;;7237801;32;20547;-75
2022/03/16 07:04:42;;;;;;;23.30;14.02;;;4.20;99.90;;;;;;7224734;32;20122;-74
2022/03/16 07:08:46;;;;;;;22.55;13.85;;;4.50;99.90;;;;;;7222302;32;20708;-74
2022/03/16 07:12:48;;;;;;;23.20;12.48;;;4.80;99.90;;;;;;7226125;32;20227;-75
2022/03/16 07:16:50;;;;;;;22.00;11.70;;;5.10;99.90;;;;;;7231902;32;20108;-76
2022/03/16 07:20:52;;;;;;;19.48;12.23;;;5.30;99.90;;;;;;7228790;32;20743;-77
2022/03/16 07:24:54;;;;;;;16.70;10.02;;;5.60;99.90;;;;;;7227931;32;20215;-77
2022/03/16 07:28:56;;;;;;;15.38;9.65;;;5.80;99.90;;;;;;7229431;32;20601;-76
2022/03/16 07:32:58;;;;;;;15.43;9.77;;;6.00;99.90;;;;;;7238743;32;20109;-76
2022/03/16 07:37:00;;;;;;;14.55;9.63;;;6.10;99.90;;;;;;7231970;32;20495;-79
2022/03/16 07:41:02;;;;;;;14.63;9.85;;;6.40;99.90;;;;;;7233415;32;20139;-77
2022/03/16 07:45:05;;;;;;;12.98;8.68;;;6.50;99.90;;;;;;7233413;32;20261;-77
2022/03/16 07:49:07;;;;;;;15.65;9.25;;;6.70;99.90;;;;;;7232901;32;20175;-77
2022/03/16 07:53:09;;;;;;;13.62;9.02;;;6.90;99.90;;;;;;7231963;32;20174;-77
2022/03/16 07:57:10;;;;;;;12.63;8.95;;;7.00;99.90;;;;;;7229450;32;20141;-76
2022/03/16 08:01:12;;;;;;;12.57;8.63;;;7.20;99.90;;;;;;7216948;32;20121;-76
2022/03/16 08:05:15;;;;;;;12.82;9.43;;;7.40;99.90;;;;;;7238508;32;20231;-75
2022/03/16 08:09:17;;;;;;;14.15;9.05;;;7.50;99.90;;;;;;7226225;32;20120;-74
2022/03/16 08:13:19;;;;;;;13.00;8.50;;;7.70;99.90;;;;;;7228452;32;20135;-75
2022/03/16 08:17:20;;;;;;;11.75;8.52;;;7.90;99.90;;;;;;7227292;32;20108;-75
2022/03/16 08:21:22;;;;;;;11.10;8.15;;;8.10;99.90;;;;;;7235378;32;20212;-75
2022/03/16 08:25:24;;;;;;;10.68;7.45;;;8.30;99.90;;;;;;7232407;32;20221;-76
2022/03/16 08:29:26;;;;;;;12.20;8.65;;;8.40;99.90;;;;;;7228670;32;20108;-75
2022/03/16 08:33:27;;;;;;;12.77;8.05;;;8.60;99.90;;;;;;7228624;32;20147;-75
2022/03/16 08:37:29;;;;;;;10.57;7.70;;;8.80;99.90;;;;;;7227887;32;20192;-75
2022/03/16 08:41:35;;;;;;;9.95;7.90;;;9.30;99.90;;;;;;7224174;32;20230;-76
2022/03/16 08:45:39;;;;;;;13.20;7.60;;;10.00;99.90;;;;;;7231211;32;20222;-74
2022/03/16 08:49:41;;;;;;;10.32;7.37;;;10.40;99.90;;;;;;7224987;32;20172;-74
2022/03/16 08:53:43;;;;;;;10.63;6.70;;;11.10;99.90;;;;;;7230021;32;20153;-74
2022/03/16 08:57:45;;;;;;;11.20;7.07;;;11.80;99.90;;;;;;7227708;32;20137;-75
2022/03/16 09:01:46;;;;;;;10.00;7.10;;;12.40;99.90;;;;;;7225577;32;20263;-76
2022/03/16 09:05:49;;;;;;;9.75;7.30;;;12.10;99.90;;;;;;7229045;32;20254;-74
2022/03/16 09:09:50;;;;;;;8.93;6.43;;;11.80;99.90;;;;;;7238992;32;20267;-73
2022/03/16 09:13:52;;;;;;;10.95;7.47;;;11.50;99.90;;;;;;7239652;32;20207;-74
2022/03/16 09:17:54;;;;;;;10.32;7.50;;;11.40;99.90;;;;;;7245849;32;20174;-74
2022/03/16 09:22:00;;;;;;;9.18;7.00;;;11.20;99.90;;;;;;7236890;32;20135;-73
2022/03/16 09:26:02;;;;;;;9.07;7.28;;;11.50;99.90;;;;;;7243851;32;20117;-74
2022/03/16 09:30:05;;;;;;;9.45;7.47;;;11.80;99.90;;;;;;7228034;32;20195;-74
2022/03/16 09:34:08;;;;;;;8.45;6.10;;;12.60;99.90;;;;;;7228959;32;20133;-74
2022/03/16 09:38:10;;;;;;;8.65;6.55;;;13.10;99.90;;;;;;7227097;32;20117;-74
2022/03/16 09:42:12;;;;;;;8.95;6.87;;;13.80;99.90;;;;;;7226624;32;20097;-74
2022/03/16 09:46:21;;;;;;;9.57;6.95;;;14.00;99.90;;;;;;7228827;32;20117;-76
2022/03/16 09:50:22;;;;;;;7.95;6.47;;;14.40;99.90;;;;;;7239243;32;20116;-75
2022/03/16 09:54:25;;;;;;;7.03;5.93;;;14.90;99.90;;;;;;7240838;32;20242;-74
2022/03/16 09:58:28;;;;;;;7.37;6.22;;;15.50;99.90;;;;;;7229868;32;20211;-75
2022/03/16 10:02:31;;;;;;;7.30;5.87;;;16.70;99.90;;;;;;7227596;32;20112;-74
2022/03/16 10:06:37;;;;;;;7.18;6.00;;;15.70;99.70;;;;;;7230865;32;20207;-74
2022/03/16 10:15:19;;;;;;;7.45;6.20;;;16.10;98.50;;;;;;7225563;32;20140;-74
2022/03/16 10:19:24;;;;;;;11.23;5.37;;;17.30;94.40;;;;;;7226415;32;20141;-75
2022/03/16 10:23:28;;;;;;;6.87;5.80;;;17.80;91.60;;;;;;7209446;32;20105;-75
2022/03/16 10:27:30;;;;;;;6.70;5.45;;;17.70;92.30;;;;;;7227644;32;20429;-75
2022/03/16 10:31:35;;;;;;;7.37;5.65;;;17.40;92.50;;;;;;7226701;32;20269;-75
2022/03/16 10:36:26;;;;;;;6.75;5.30;;;18.30;86.10;;;;;;7229775;32;20105;-75
2022/03/16 10:40:28;;;;;;;5.82;5.20;;;18.40;88.00;;;;;;7229195;32;20506;-75
2022/03/16 10:49:04;;;;;;;5.87;5.10;;;19.30;77.20;;;;;;7227829;32;20192;-75
2022/03/16 10:53:06;;;;;;;5.90;5.30;;;17.90;76.60;;;;;;7224347;32;20252;-74
2022/03/16 10:57:10;;;;;;;5.60;5.00;;;17.00;86.00;;;;;;7228416;32;20129;-75
2022/03/16 11:01:14;;;;;;;5.43;4.65;;;16.20;90.50;;;;;;7215939;32;20868;-75
2022/03/16 11:05:18;;;;;;;8.85;5.00;;;15.50;92.50;;;;;;7226822;32;20230;-75
2022/03/16 11:09:21;;;;;;;6.05;4.70;;;15.30;94.90;;;;;;7226785;32;20124;-74
2022/03/16 11:13:29;;;;;;;5.72;4.78;;;16.10;94.20;;;;;;7225772;32;20113;-75
2022/03/16 11:17:31;;;;;;;6.05;4.82;;;16.30;92.40;;;;;;7226576;32;20113;-75
2022/03/16 11:21:45;;;;;;;5.28;4.45;;;16.10;92.60;;;;;;7227788;32;20219;-75
2022/03/16 11:26:23;;;;;;;5.70;4.03;;;16.40;88.80;;;;;;7221528;32;20479;-75
2022/03/16 11:30:37;;;;;;;4.30;3.58;;;16.60;88.30;;;;;;7213539;32;20259;-75
2022/03/16 11:34:45;;;;;;;4.37;3.95;;;16.50;88.70;;;;;;7223636;32;20121;-75
2022/03/16 11:38:47;;;;;;;4.30;3.70;;;17.10;88.80;;;;;;7224188;32;20250;-77
2022/03/16 11:43:08;;;;;;;4.32;3.33;;;17.80;83.20;;;;;;7223775;32;20503;-74
2022/03/16 11:47:10;;;;;;;3.72;3.33;;;17.70;83.20;;;;;;7222534;32;20485;-78
2022/03/16 11:51:11;;;;;;;5.53;3.90;;;17.70;83.00;;;;;;7229285;32;20126;-74
2022/03/16 11:55:41;;;;;;;4.22;3.67;;;17.20;80.40;;;;;;7227816;32;20460;-74
2022/03/16 11:59:44;;;;;;;4.10;3.70;;;16.50;85.20;;;;;;7221566;32;20164;-75
2022/03/16 12:03:46;;;;;;;5.62;3.90;;;16.50;84.90;;;;;;7221062;32;20102;-75
2022/03/16 12:08:11;;;;;;;4.40;3.90;;;16.80;84.50;;;;;;7228440;32;20679;-75
2022/03/16 12:16:42;;;;;;;7.20;3.25;;;17.90;83.40;;;;;;7228263;32;20223;-75
2022/03/16 12:20:54;;;;;;;6.03;3.22;;;18.00;80.70;;;;;;7231587;32;20131;-76
2022/03/16 12:25:25;;;;;;;4.07;3.28;;;18.40;81.80;;;;;;7227621;32;20105;-74
2022/03/16 12:29:28;;;;;;;4.28;3.60;;;18.40;78.60;;;;;;7225472;32;20166;-76
2022/03/16 12:33:41;;;;;;;3.85;3.12;;;17.60;78.50;;;;;;7228762;32;20183;-72
2022/03/16 12:37:50;;;;;;;5.22;4.12;;;17.50;82.40;;;;;;7236130;32;20572;-74
2022/03/16 12:46:47;;;;;;;4.80;3.33;;;16.80;85.20;;;;;;7238414;32;20518;-72
2022/03/16 12:50:51;;;;;;;5.45;3.60;;;16.70;84.40;;;;;;7231677;32;20116;-77
2022/03/16 12:54:54;;;;;;;6.15;3.35;;;16.10;85.00;;;;;;7225894;32;20483;-74
2022/03/16 12:58:56;;;;;;;5.53;3.72;;;16.10;88.60;;;;;;7227906;32;20597;-75
2022/03/16 13:03:14;;;;;;;4.22;3.50;;;16.20;89.10;;;;;;7227876;32;20125;-75
2022/03/16 13:07:19;;;;;;;5.20;3.70;;;16.40;90.30;;;;;;7230817;32;20216;-76
2022/03/16 13:11:26;;;;;;;4.05;3.50;;;16.40;90.10;;;;;;7239927;32;20129;-75
2022/03/16 13:15:28;;;;;;;;;;;16.80;89.40;;;;;;7229439;32;20539;-72
2022/03/16 13:19:32;;;;;;;4.55;3.70;;;16.50;90.10;;;;;;7227961;32;20130;-75
2022/03/16 13:23:34;;;;;;;5.82;3.20;;;15.90;91.20;;;;;;7230333;32;20104;-74
2022/03/16 13:27:40;;;;;;;4.12;3.25;;;15.70;93.80;;;;;;7230174;32;20112;-75
2022/03/16 13:31:43;;;;;;;3.85;2.95;;;15.70;93.00;;;;;;7228280;32;20228;-75
2022/03/16 13:35:45;;;;;;;4.05;2.80;;;15.50;92.40;;;;;;7230498;32;20200;-75
2022/03/16 13:40:07;;;;;;;5.25;2.90;;;15.40;93.30;;;;;;7226916;32;20109;-75
2022/03/16 13:44:09;;;;;;;4.32;3.17;;;15.40;95.80;;;;;;7232968;32;20113;-75
2022/03/16 13:48:14;;;;;;;5.47;3.62;;;15.50;94.30;;;;;;7225039;32;20514;-74
2022/03/16 13:52:20;;;;;;;4.32;3.50;;;15.40;95.30;;;;;;7227824;32;20109;-74
2022/03/16 13:56:37;;;;;;;5.78;4.00;;;15.10;94.80;;;;;;7241394;32;20186;-75
2022/03/16 14:00:48;;;;;;;4.65;3.92;;;15.00;96.00;;;;;;7238132;32;20152;-75
2022/03/16 14:05:03;;;;;;;5.22;3.97;;;14.90;99.10;;;;;;7227591;32;20100;-74
2022/03/16 14:09:21;;;;;;;6.12;4.37;;;15.00;97.00;;;;;;7222970;32;20212;-75
2022/03/16 14:13:25;;;;;;;6.97;4.20;;;14.90;96.90;;;;;;7230047;32;20133;-74
2022/03/16 14:17:57;;;;;;;5.07;3.80;;;14.70;97.80;;;;;;7227883;32;20163;-75
2022/03/16 14:22:00;;;;;;;6.30;4.10;;;14.70;98.70;;;;;;7227757;32;20469;-75
2022/03/16 14:26:02;;;;;;;8.38;4.47;;;14.70;99.00;;;;;;7212572;32;20190;-76
2022/03/16 14:30:04;;;;;;;7.80;4.20;;;14.70;99.00;;;;;;7230370;32;20120;-75
2022/03/16 14:34:07;;;;;;;7.45;3.70;;;14.80;99.00;;;;;;7229110;32;20147;-76
2022/03/16 14:38:09;;;;;;;5.47;4.25;;;14.90;99.90;;;;;;7230733;32;20171;-73
2022/03/16 14:42:11;;;;;;;7.15;4.62;;;15.00;99.90;;;;;;7230444;32;20123;-73
2022/03/16 14:46:14;;;;;;;4.95;3.78;;;15.10;99.50;;;;;;7232752;32;20784;-73
2022/03/16 14:50:18;;;;;;;7.30;4.53;;;15.20;99.90;;;;;;7229756;32;20204;-75
2022/03/16 14:54:20;;;;;;;6.32;4.55;;;15.10;99.90;;;;;;7226984;32;20262;-72
2022/03/16 14:58:22;;;;;;;5.10;4.10;;;14.60;99.90;;;;;;7229769;32;20200;-75
2022/03/16 15:02:25;;;;;;;5.07;3.95;;;14.40;99.90;;;;;;7227360;32;20131;-74
2022/03/16 15:06:27;;;;;;;7.50;4.85;;;14.40;99.90;;;;;;7228356;32;20708;-74
2022/03/16 15:10:28;;;;;;;5.97;4.50;;;14.30;99.90;;;;;;7227831;32;20475;-74
2022/03/16 15:14:30;;;;;;;7.82;4.65;;;14.10;99.90;;;;;;7228969;32;20186;-75
2022/03/16 15:18:32;;;;;;;6.85;3.80;;;14.00;99.90;;;;;;7229616;32;20598;-74
2022/03/16 15:22:34;;;;;;;5.57;3.87;;;14.00;99.90;;;;;;7225863;32;20112;-74
2022/03/16 15:26:36;;;;;;;8.95;3.90;;;13.90;99.90;;;;;;7237403;32;20502;-74
2022/03/16 15:30:39;;;;;;;7.00;4.20;;;13.90;99.90;;;;;;7220256;32;21122;-74
2022/03/16 15:34:44;;;;;;;5.37;4.55;;;13.90;99.90;;;;;;7224699;32;20152;-74
2022/03/16 15:38:46;;;;;;;8.40;4.50;;;13.90;99.90;;;;;;7229058;32;20711;-74
2022/03/16 15:42:48;;;;;;;7.62;4.72;;;13.90;99.90;;;;;;7228121;32;20116;-74
2022/03/16 15:46:50;;;;;;;5.87;4.62;;;13.70;99.90;;;;;;7227183;32;20679;-74
2022/03/16 15:50:53;;;;;;;5.55;4.32;;;13.50;99.90;;;;;;7227186;32;21213;-74
2022/03/16 15:54:55;;;;;;;5.15;4.28;;;13.30;99.90;;;;;;7231654;32;20108;-74
2022/03/16 15:58:57;;;;;;;7.07;4.72;;;13.30;99.90;;;;;;7246240;32;20280;-74
2022/03/16 16:03:01;;;;;;;6.87;4.00;;;13.30;99.90;;;;;;7230759;32;20101;-75
2022/03/16 16:07:04;;;;;;;5.87;4.40;;;13.30;99.90;;;;;;7227984;32;20494;-74
2022/03/16 16:11:08;;;;;;;5.82;4.60;;;13.20;99.90;;;;;;7230204;32;20108;-75
2022/03/16 16:15:12;;;;;;;6.62;4.32;;;13.20;99.90;;;;;;7228995;32;20112;-75
2022/03/16 16:19:18;;;;;;;5.57;4.47;;;13.20;99.90;;;;;;7242187;32;20196;-75
2022/03/16 16:23:20;;;;;;;5.65;4.47;;;13.10;99.90;;;;;;7241801;32;20139;-75
2022/03/16 16:27:22;;;;;;;6.03;4.68;;;13.10;99.90;;;;;;7226194;32;20129;-73
2022/03/16 16:31:24;;;;;;;5.95;4.60;;;13.10;99.90;;;;;;7234948;32;20227;-74
2022/03/16 16:35:27;;;;;;;7.22;4.82;;;13.00;99.90;;;;;;7232272;32;20195;-75
2022/03/16 16:39:29;;;;;;;6.43;4.82;;;12.80;99.90;;;;;;7230003;32;20646;-74
2022/03/16 16:43:31;;;;;;;6.22;4.70;;;12.70;99.90;;;;;;7228909;32;20166;-75
2022/03/16 16:47:37;;;;;;;8.18;5.28;;;12.50;99.90;;;;;;7229353;32;20503;-74
2022/03/16 16:51:40;;;;;;;6.63;5.03;;;12.50;99.90;;;;;;7230108;32;20112;-74
2022/03/16 16:55:42;;;;;;;6.57;5.47;;;12.60;99.90;;;;;;7232205;32;20184;-74
2022/03/16 16:59:43;;;;;;;10.23;5.47;;;12.40;99.90;;;;;;7228347;32;20139;-74
2022/03/16 17:03:48;;;;;;;6.40;4.65;;;12.40;99.90;;;;;;7228276;32;20109;-75
2022/03/16 17:07:50;;;;;;;7.87;4.60;;;12.30;99.90;;;;;;7227258;32;20226;-75
2022/03/16 17:11:54;;;;;;;7.62;5.60;;;12.30;99.90;;;;;;7236319;32;20121;-75
2022/03/16 17:15:58;;;;;;;5.78;4.65;;;12.20;99.90;;;;;;7234045;32;20176;-75
2022/03/16 17:20:00;;;;;;;6.75;4.78;;;12.00;99.90;;;;;;7264690;32;20152;-75
2022/03/16 17:24:02;;;;;;;6.30;5.28;;;12.00;99.90;;;;;;7260292;32;20330;-74
2022/03/16 17:28:07;;;;;;;9.05;6.03;;;12.00;99.90;;;;;;7264292;32;20250;-74
2022/03/16 17:32:09;;;;;;;8.18;5.65;;;11.90;99.90;;;;;;7253843;32;20121;-75
2022/03/16 17:36:11;;;;;;;12.23;8.07;;;11.90;99.90;;;;;;7246783;32;20105;-75
2022/03/16 17:40:14;;;;;;;9.88;7.80;;;11.70;99.90;;;;;;7239069;32;20109;-74
2022/03/16 17:49:01;;;;;;;9.10;7.45;;;11.70;99.90;;;;;;7228284;32;20145;-74
2022/03/16 17:53:04;;;;;;;10.35;7.78;;;11.70;99.90;;;;;;7230855;32;20194;-74
2022/03/16 17:57:05;;;;;;;12.65;7.55;;;11.70;99.90;;;;;;7229265;32;20154;-74
2022/03/16 18:01:07;;;;;;;12.05;8.13;;;11.60;99.90;;;;;;7229779;32;20176;-74
2022/03/16 18:05:09;;;;;;;11.10;7.90;;;11.50;99.90;;;;;;7240364;32;20200;-74
2022/03/16 18:09:13;;;;;;;11.77;8.38;;;11.50;99.90;;;;;;7229596;32;20127;-76
2022/03/16 18:13:15;;;;;;;10.85;8.27;;;11.50;99.90;;;;;;7230441;32;20493;-76
2022/03/16 18:17:17;;;;;;;11.23;8.40;;;11.40;99.90;;;;;;7230383;32;20167;-77
2022/03/16 18:21:19;;;;;;;13.18;8.98;;;11.40;99.90;;;;;;7229183;32;20156;-74
2022/03/16 18:25:20;;;;;;;13.88;9.45;;;11.40;99.90;;;;;;7228693;32;20126;-74
2022/03/16 18:29:23;;;;;;;14.80;9.57;;;11.30;99.90;;;;;;7231834;32;20518;-74
2022/03/16 18:33:27;;;;;;;15.75;10.40;;;11.30;99.90;;;;;;7222286;32;20185;-73
2022/03/16 18:37:28;;;;;;;12.37;9.82;;;11.20;99.90;;;;;;7225552;32;20408;-74
2022/03/16 18:41:32;;;;;;;13.10;9.93;;;11.20;99.90;;;;;;7226125;32;20487;-74
2022/03/16 18:45:35;;;;;;;16.02;11.00;;;11.10;99.90;;;;;;7227036;32;20558;-74
2022/03/16 18:49:42;;;;;;;12.20;9.98;;;11.10;99.90;;;;;;7228517;32;20612;-74
2022/03/16 18:53:46;;;;;;;13.73;10.30;;;11.10;99.90;;;;;;7226104;32;20212;-74
2022/03/16 18:57:49;;;;;;;14.82;11.23;;;11.10;99.90;;;;;;7227517;32;20110;-74
2022/03/16 19:01:52;;;;;;;15.18;10.32;;;11.00;99.90;;;;;;7226460;32;20233;-73
2022/03/16 19:05:54;;;;;;;14.65;10.88;;;11.00;99.90;;;;;;7224484;32;20326;-79
2022/03/16 19:09:55;;;;;;;16.52;10.80;;;11.10;99.90;;;;;;7225897;32;20652;-75
2022/03/16 19:13:57;;;;;;;13.77;10.43;;;11.10;99.90;;;;;;7213293;32;20327;-75
2022/03/16 19:18:00;;;;;;;14.90;10.25;;;11.10;99.90;;;;;;7214862;32;20182;-76
2022/03/16 19:22:06;;;;;;;15.52;10.77;;;11.00;99.90;;;;;;7226639;32;20477;-76
2022/03/16 19:26:08;;;;;;;13.60;10.33;;;11.10;99.90;;;;;;7215739;32;20127;-75
2022/03/16 19:30:13;;;;;;;13.05;10.23;;;11.10;99.90;;;;;;7231822;32;20112;-76
2022/03/16 19:34:18;;;;;;;14.05;10.45;;;11.10;99.90;;;;;;7218447;32;20164;-75
2022/03/16 19:38:20;;;;;;;14.70;10.98;;;11.00;99.90;;;;;;7229736;32;20204;-76
2022/03/16 19:42:34;;;;;;;15.65;11.93;;;11.00;99.90;;;;;;7231775;32;20194;-76
2022/03/16 19:46:36;;;;;;;15.30;11.40;;;10.90;99.90;;;;;;7233038;32;20132;-76
2022/03/16 19:50:38;;;;;;;18.92;12.40;;;10.90;99.90;;;;;;7227147;32;20521;-75
2022/03/16 19:54:40;;;;;;;15.70;12.15;;;11.00;99.90;;;;;;7232092;32;20121;-76
2022/03/16 19:58:43;;;;;;;14.55;12.00;;;11.00;99.90;;;;;;7231743;32;20131;-76
2022/03/16 20:02:45;;;;;;;16.87;12.15;;;11.00;99.90;;;;;;7242642;32;20117;-78
2022/03/16 20:06:48;;;;;;;15.35;12.13;;;11.00;99.90;;;;;;7230821;32;20196;-75
2022/03/16 20:10:50;;;;;;;16.98;13.15;;;11.10;99.90;;;;;;7232624;32;20222;-75
2022/03/16 20:14:55;;;;;;;16.23;12.13;;;11.10;99.90;;;;;;7231337;32;20676;-75
2022/03/16 20:18:57;;;;;;;20.23;12.90;;;11.10;99.90;;;;;;7229826;32;20241;-75
2022/03/16 20:22:59;;;;;;;19.87;12.32;;;11.10;99.90;;;;;;7230731;32;20117;-75
2022/03/16 20:27:02;;;;;;;17.85;13.60;;;11.10;99.90;;;;;;7218275;32;20216;-76
2022/03/16 20:31:04;;;;;;;19.17;13.43;;;11.00;99.90;;;;;;7245395;32;20180;-75
2022/03/16 20:35:06;;;;;;;16.87;13.27;;;11.00;99.90;;;;;;7233941;32;20479;-75
2022/03/16 20:39:08;;;;;;;19.85;13.25;;;11.00;99.90;;;;;;7230190;32;20231;-74
2022/03/16 20:43:11;;;;;;;17.70;14.15;;;11.00;99.90;;;;;;7231244;32;20801;-74
2022/03/16 20:47:13;;;;;;;17.75;13.45;;;11.00;99.90;;;;;;7228823;32;20128;-75
2022/03/16 20:51:15;;;;;;;16.12;14.15;;;11.00;99.90;;;;;;7233364;32;20159;-77
2022/03/16 20:55:17;;;;;;;17.85;14.52;;;11.00;99.90;;;;;;7234975;32;20193;-76
2022/03/16 21:03:40;;;;;;;18.90;15.07;;;11.00;99.90;;;;;;7231846;32;20164;-75
2022/03/16 21:07:50;;;;;;;21.27;14.35;;;11.10;99.90;;;;;;7234817;32;20177;-76
2022/03/16 21:11:52;;;;;;;19.73;15.07;;;11.10;99.90;;;;;;7230559;32;20257;-75
2022/03/16 21:16:10;;;;;;;19.02;15.10;;;11.20;99.90;;;;;;7232866;32;20228;-78
2022/03/16 21:20:12;;;;;;;20.67;15.80;;;11.20;99.90;;;;;;7238234;32;20166;-76
2022/03/16 21:24:16;;;;;;;21.15;15.75;;;11.20;99.90;;;;;;7241417;32;20168;-75
2022/03/16 21:28:18;;;;;;;20.33;15.52;;;11.20;99.90;;;;;;7241685;32;20216;-77
2022/03/16 21:32:25;;;;;;;20.88;16.12;;;11.30;99.90;;;;;;7235205;32;20493;-76